createdAt,value
2018-03-30T00:00:22.470Z,7.40
2018-03-30T00:01:22.430Z,7.21
2018-03-30T00:02:22.465Z,7.21
2018-03-30T00:03:22.450Z,7.35
2018-03-30T00:04:22.468Z,7.28
2018-03-30T00:05:22.521Z,7.21
2018-03-30T00:06:22.498Z,7.31
2018-03-30T00:07:22.507Z,7.40
2018-03-30T00:08:22.523Z,7.27
2018-03-30T00:09:22.543Z,7.25
2018-03-30T00:10:25.871Z,7.24
2018-03-30T00:11:22.556Z,7.20
2018-03-30T00:12:22.613Z,7.17
2018-03-30T00:13:22.590Z,7.40
2018-03-30T00:14:26.256Z,7.39
2018-03-30T00:15:22.608Z,7.25
2018-03-30T00:16:22.618Z,7.13
2018-03-30T00:17:22.637Z,7.13
2018-03-30T00:18:22.635Z,7.03
2018-03-30T00:19:22.654Z,7.28
2018-03-30T00:20:22.885Z,7.39
2018-03-30T00:21:22.674Z,7.27
2018-03-30T00:22:23.360Z,7.24
2018-03-30T00:23:22.727Z,7.28
2018-03-30T00:24:25.702Z,7.23
2018-03-30T00:25:28.470Z,7.12
2018-03-30T00:26:22.773Z,7.16
2018-03-30T00:27:25.761Z,7.34
2018-03-30T00:28:22.754Z,7.07
2018-03-30T00:29:22.768Z,7.17
2018-03-30T00:30:22.787Z,7.06
2018-03-30T00:31:33.467Z,7.16
2018-03-30T00:32:29.352Z,7.16
2018-03-30T00:33:28.791Z,7.17
2018-03-30T00:34:22.840Z,7.40
2018-03-30T00:35:22.879Z,7.39
2018-03-30T00:36:22.896Z,7.25
2018-03-30T00:37:22.916Z,7.24
2018-03-30T00:38:22.900Z,7.28
2018-03-30T00:39:22.897Z,7.37
2018-03-30T00:40:22.962Z,7.28
2018-03-30T00:41:23.849Z,7.15
2018-03-30T00:42:22.935Z,7.40
2018-03-30T00:43:22.961Z,7.16
2018-03-30T00:44:22.999Z,7.21
2018-03-30T00:45:22.963Z,7.23
2018-03-30T00:46:22.978Z,7.32
2018-03-30T00:47:25.876Z,7.21
2018-03-30T00:48:23.005Z,7.45
2018-03-30T00:49:23.033Z,7.45
2018-03-30T00:50:23.139Z,7.31
2018-03-30T00:51:23.045Z,7.21
2018-03-30T00:52:23.050Z,7.17
2018-03-30T00:53:23.056Z,7.28
2018-03-30T00:54:23.085Z,7.21
2018-03-30T00:55:23.147Z,7.25
2018-03-30T00:56:23.114Z,7.20
2018-03-30T00:57:23.112Z,7.30
2018-03-30T00:58:23.118Z,7.20
2018-03-30T00:59:23.131Z,7.24
2018-03-30T01:00:23.382Z,7.49
2018-03-30T01:01:23.151Z,7.57
2018-03-30T01:02:23.181Z,7.52
2018-03-30T01:03:23.199Z,7.46
2018-03-30T01:04:23.191Z,7.48
2018-03-30T01:05:23.203Z,7.57
2018-03-30T01:06:23.239Z,7.53
2018-03-30T01:07:23.243Z,7.46
2018-03-30T01:08:23.256Z,7.57
2018-03-30T01:09:23.244Z,7.57
2018-03-30T01:10:23.397Z,7.72
2018-03-30T01:11:23.349Z,7.52
2018-03-30T01:12:23.290Z,7.49
2018-03-30T01:13:23.304Z,7.48
2018-03-30T01:14:23.316Z,7.35
2018-03-30T01:15:23.329Z,7.27
2018-03-30T01:16:23.359Z,7.23
2018-03-30T01:17:23.373Z,7.21
2018-03-30T01:18:23.356Z,7.40
2018-03-30T01:19:23.392Z,7.49
2018-03-30T01:20:23.396Z,7.52
2018-03-30T01:21:23.448Z,7.46
2018-03-30T01:22:23.403Z,7.39
2018-03-30T01:23:23.415Z,7.40
2018-03-30T01:24:23.430Z,7.30
2018-03-30T01:25:23.457Z,7.60
2018-03-30T01:26:23.485Z,7.60
2018-03-30T01:27:23.474Z,7.35
2018-03-30T01:28:23.506Z,7.32
2018-03-30T01:29:23.492Z,7.58
2018-03-30T01:30:23.509Z,7.52
2018-03-30T01:31:23.515Z,7.28
2018-03-30T01:32:23.533Z,7.45
2018-03-30T01:33:23.582Z,7.40
2018-03-30T01:34:23.549Z,7.32
2018-03-30T01:35:23.586Z,7.48
2018-03-30T01:36:23.601Z,7.46
2018-03-30T01:37:23.580Z,7.52
2018-03-30T01:38:23.641Z,7.48
2018-03-30T01:39:23.630Z,7.45
2018-03-30T01:40:23.618Z,7.68
2018-03-30T01:41:23.649Z,7.52
2018-03-30T01:42:23.650Z,7.32
2018-03-30T01:43:23.678Z,7.21
2018-03-30T01:44:23.721Z,7.32
2018-03-30T01:45:23.681Z,7.46
2018-03-30T01:46:23.705Z,7.28
2018-03-30T01:47:23.714Z,7.30
2018-03-30T01:48:23.720Z,7.32
2018-03-30T01:49:23.754Z,7.21
2018-03-30T01:50:23.769Z,7.17
2018-03-30T01:51:23.761Z,7.20
2018-03-30T01:52:23.774Z,7.13
2018-03-30T01:53:23.816Z,7.15
2018-03-30T01:54:23.788Z,7.23
2018-03-30T01:55:23.797Z,6.98
2018-03-30T01:56:23.806Z,7.17
2018-03-30T01:57:23.822Z,7.23
2018-03-30T01:58:23.847Z,7.21
2018-03-30T01:59:23.882Z,7.32
2018-03-30T02:00:23.864Z,7.39
2018-03-30T02:01:23.873Z,7.40
2018-03-30T02:02:23.894Z,7.37
2018-03-30T02:03:23.905Z,7.37
2018-03-30T02:04:23.957Z,7.28
2018-03-30T02:05:23.918Z,7.20
2018-03-30T02:06:23.930Z,7.28
2018-03-30T02:07:23.939Z,7.37
2018-03-30T02:08:23.953Z,7.24
2018-03-30T02:09:23.979Z,7.12
2018-03-30T02:10:24.014Z,7.15
2018-03-30T02:11:23.994Z,7.37
2018-03-30T02:12:24.002Z,7.39
2018-03-30T02:13:24.011Z,7.27
2018-03-30T02:14:24.026Z,7.32
2018-03-30T02:15:24.063Z,7.55
2018-03-30T02:16:24.043Z,7.53
2018-03-30T02:17:24.061Z,7.37
2018-03-30T02:18:24.075Z,7.43
2018-03-30T02:19:24.080Z,7.40
2018-03-30T02:20:24.097Z,7.46
2018-03-30T02:21:24.147Z,7.31
2018-03-30T02:22:24.121Z,7.24
2018-03-30T02:23:24.138Z,7.25
2018-03-30T02:24:24.153Z,7.28
2018-03-30T02:25:24.158Z,7.43
2018-03-30T02:26:24.207Z,7.53
2018-03-30T02:27:24.187Z,7.24
2018-03-30T02:28:24.200Z,7.20
2018-03-30T02:29:24.201Z,7.31
2018-03-30T02:30:24.217Z,7.10
2018-03-30T02:31:24.244Z,7.02
2018-03-30T02:32:24.242Z,6.98
2018-03-30T02:33:24.256Z,7.23
2018-03-30T02:34:24.264Z,7.05
2018-03-30T02:35:24.317Z,6.99
2018-03-30T02:36:24.285Z,6.89
2018-03-30T02:37:24.310Z,6.85
2018-03-30T02:38:24.321Z,6.98
2018-03-30T02:39:24.377Z,6.92
2018-03-30T02:40:24.416Z,6.85
2018-03-30T02:41:24.411Z,6.99
2018-03-30T02:42:24.411Z,7.12
2018-03-30T02:43:24.409Z,7.06
2018-03-30T02:44:24.415Z,7.06
2018-03-30T02:45:24.466Z,6.98
2018-03-30T02:46:24.436Z,7.07
2018-03-30T02:47:24.460Z,7.15
2018-03-30T02:48:24.475Z,7.17
2018-03-30T02:49:24.525Z,7.27
2018-03-30T02:50:24.517Z,7.39
2018-03-30T02:51:24.502Z,7.16
2018-03-30T02:52:24.520Z,7.20
2018-03-30T02:53:24.550Z,7.40
2018-03-30T02:54:24.539Z,7.37
2018-03-30T02:55:24.533Z,7.32
2018-03-30T02:56:24.562Z,7.27
2018-03-30T02:57:24.539Z,7.34
2018-03-30T02:58:24.575Z,7.31
2018-03-30T02:59:24.562Z,7.09
2018-03-30T03:00:24.608Z,7.31
2018-03-30T03:01:24.623Z,7.48
2018-03-30T03:02:24.611Z,7.39
2018-03-30T03:03:24.620Z,7.39
2018-03-30T03:04:24.678Z,7.45
2018-03-30T03:05:24.645Z,7.35
2018-03-30T03:06:24.672Z,7.20
2018-03-30T03:07:24.672Z,7.37
2018-03-30T03:08:24.681Z,7.30
2018-03-30T03:09:24.701Z,7.35
2018-03-30T03:10:24.730Z,7.34
2018-03-30T03:11:24.706Z,7.52
2018-03-30T03:12:24.736Z,7.37
2018-03-30T03:13:24.737Z,7.23
2018-03-30T03:14:24.744Z,7.34
2018-03-30T03:15:24.793Z,7.37
2018-03-30T03:16:24.763Z,7.46
2018-03-30T03:17:24.778Z,7.53
2018-03-30T03:18:24.791Z,7.61
2018-03-30T03:19:24.803Z,7.58
2018-03-30T03:20:24.818Z,7.35
2018-03-30T03:21:24.854Z,7.31
2018-03-30T03:22:24.865Z,7.39
2018-03-30T03:23:24.858Z,7.55
2018-03-30T03:24:24.868Z,7.53
2018-03-30T03:25:24.872Z,7.68
2018-03-30T03:26:24.907Z,7.68
2018-03-30T03:27:24.908Z,7.49
2018-03-30T03:28:24.915Z,7.39
2018-03-30T03:29:24.929Z,7.40
2018-03-30T03:30:24.939Z,7.42
2018-03-30T03:31:24.995Z,7.35
2018-03-30T03:32:24.959Z,7.43
2018-03-30T03:33:24.996Z,7.34
2018-03-30T03:34:24.985Z,7.35
2018-03-30T03:35:24.991Z,7.31
2018-03-30T03:36:25.011Z,7.21
2018-03-30T03:37:25.034Z,7.34
2018-03-30T03:38:25.030Z,7.40
2018-03-30T03:39:25.071Z,7.35
2018-03-30T03:40:25.054Z,7.35
2018-03-30T03:41:25.065Z,7.42
2018-03-30T03:42:25.108Z,7.49
2018-03-30T03:43:25.083Z,7.52
2018-03-30T03:44:25.138Z,7.52
2018-03-30T03:45:25.113Z,7.72
2018-03-30T03:46:25.126Z,7.57
2018-03-30T03:47:25.134Z,7.39
2018-03-30T03:48:25.167Z,7.64
2018-03-30T03:49:25.183Z,7.53
2018-03-30T03:50:25.176Z,7.42
2018-03-30T03:51:25.181Z,7.52
2018-03-30T03:52:25.204Z,7.40
2018-03-30T03:53:25.245Z,7.43
2018-03-30T03:54:25.879Z,7.30
2018-03-30T03:55:25.256Z,7.24
2018-03-30T03:56:25.255Z,7.21
2018-03-30T03:57:25.261Z,7.35
2018-03-30T03:58:25.316Z,7.27
2018-03-30T03:59:25.284Z,7.23
2018-03-30T04:00:25.296Z,7.31
2018-03-30T04:01:25.315Z,7.55
2018-03-30T04:02:25.325Z,7.50
2018-03-30T04:03:25.367Z,7.48
2018-03-30T04:04:25.357Z,7.31
2018-03-30T04:05:25.361Z,7.24
2018-03-30T04:06:25.408Z,7.37
2018-03-30T04:07:25.392Z,7.40
2018-03-30T04:08:25.416Z,7.23
2018-03-30T04:09:25.406Z,7.28
2018-03-30T04:10:25.427Z,7.13
2018-03-30T04:11:25.424Z,7.03
2018-03-30T04:12:25.434Z,7.28
2018-03-30T04:13:25.473Z,7.21
2018-03-30T04:14:25.471Z,7.20
2018-03-30T04:15:25.508Z,7.21
2018-03-30T04:16:25.489Z,7.21
2018-03-30T04:17:25.504Z,7.15
2018-03-30T04:18:25.514Z,7.17
2018-03-30T04:19:25.519Z,7.06
2018-03-30T04:20:25.541Z,7.03
2018-03-30T04:21:25.580Z,7.02
2018-03-30T04:22:25.572Z,6.97
2018-03-30T04:23:25.612Z,6.95
2018-03-30T04:24:25.595Z,6.87
2018-03-30T04:25:25.619Z,6.99
2018-03-30T04:26:25.609Z,7.16
2018-03-30T04:27:25.629Z,7.05
2018-03-30T04:28:25.659Z,7.12
2018-03-30T04:29:25.663Z,6.98
2018-03-30T04:30:25.653Z,6.84
2018-03-30T04:31:25.678Z,6.95
2018-03-30T04:32:25.673Z,6.98
2018-03-30T04:33:25.717Z,6.84
2018-03-30T04:34:25.712Z,6.84
2018-03-30T04:35:25.714Z,7.03
2018-03-30T04:36:25.729Z,6.94
2018-03-30T04:37:25.736Z,6.97
2018-03-30T04:38:25.762Z,7.10
2018-03-30T04:39:25.753Z,7.24
2018-03-30T04:40:25.770Z,7.17
2018-03-30T04:41:25.783Z,7.23
2018-03-30T04:42:25.812Z,7.20
2018-03-30T04:43:25.804Z,7.16
2018-03-30T04:44:25.821Z,7.15
2018-03-30T04:45:25.832Z,7.24
2018-03-30T04:46:25.844Z,7.34
2018-03-30T04:47:25.870Z,7.30
2018-03-30T04:48:25.862Z,7.31
2018-03-30T04:49:25.879Z,7.23
2018-03-30T04:50:25.892Z,7.07
2018-03-30T04:51:25.906Z,7.24
2018-03-30T04:52:25.939Z,7.15
2018-03-30T04:53:25.931Z,7.24
2018-03-30T04:54:25.936Z,7.24
2018-03-30T04:55:25.954Z,7.16
2018-03-30T04:56:25.983Z,7.27
2018-03-30T04:57:25.990Z,7.21
2018-03-30T04:58:26.028Z,7.20
2018-03-30T04:59:26.007Z,7.20
2018-03-30T05:00:26.012Z,7.23
2018-03-30T05:01:26.028Z,7.27
2018-03-30T05:02:26.032Z,7.20
2018-03-30T05:03:26.065Z,7.37
2018-03-30T05:04:26.068Z,7.52
2018-03-30T05:05:26.099Z,7.50
2018-03-30T05:06:26.088Z,7.39
2018-03-30T05:07:26.115Z,7.37
2018-03-30T05:08:26.105Z,7.28
2018-03-30T05:09:26.114Z,7.20
2018-03-30T05:10:26.130Z,7.37
2018-03-30T05:11:26.143Z,7.30
2018-03-30T05:12:26.185Z,7.25
2018-03-30T05:13:26.172Z,7.49
2018-03-30T05:14:26.178Z,7.43
2018-03-30T05:15:26.196Z,7.58
2018-03-30T05:16:26.198Z,7.53
2018-03-30T05:17:26.219Z,7.55
2018-03-30T05:18:26.251Z,7.77
2018-03-30T05:19:26.233Z,7.71
2018-03-30T05:20:26.254Z,7.68
2018-03-30T05:21:26.254Z,7.53
2018-03-30T05:22:26.268Z,7.79
2018-03-30T05:23:26.289Z,7.85
2018-03-30T05:24:26.405Z,7.77
2018-03-30T05:25:26.326Z,7.71
2018-03-30T05:26:26.321Z,7.57
2018-03-30T05:27:26.335Z,7.72
2018-03-30T05:28:26.353Z,7.68
2018-03-30T05:29:26.359Z,7.48
2018-03-30T05:30:26.401Z,7.52
2018-03-30T05:31:26.374Z,7.52
2018-03-30T05:32:26.403Z,7.86
2018-03-30T05:33:26.401Z,7.68
2018-03-30T05:34:26.420Z,7.50
2018-03-30T05:35:26.464Z,7.52
2018-03-30T05:36:26.440Z,7.55
2018-03-30T05:37:26.453Z,7.72
2018-03-30T05:38:26.459Z,7.48
2018-03-30T05:39:26.484Z,7.55
2018-03-30T05:40:26.514Z,7.46
2018-03-30T05:41:26.521Z,7.69
2018-03-30T05:42:26.517Z,7.79
2018-03-30T05:43:26.525Z,7.74
2018-03-30T05:44:26.553Z,7.97
2018-03-30T05:45:26.545Z,8.07
2018-03-30T05:46:26.589Z,7.85
2018-03-30T05:47:26.571Z,7.82
2018-03-30T05:48:26.597Z,7.79
2018-03-30T05:49:26.597Z,7.68
2018-03-30T05:50:26.606Z,7.67
2018-03-30T05:51:26.648Z,7.72
2018-03-30T05:52:26.629Z,7.90
2018-03-30T05:53:26.645Z,7.85
2018-03-30T05:54:26.658Z,7.92
2018-03-30T05:55:26.664Z,7.92
2018-03-30T05:56:26.685Z,7.90
2018-03-30T05:57:26.740Z,7.82
2018-03-30T05:58:26.701Z,7.86
2018-03-30T05:59:26.709Z,7.82
2018-03-30T06:00:26.728Z,8.20
2018-03-30T06:01:26.741Z,8.20
2018-03-30T06:02:26.754Z,8.16
2018-03-30T06:03:26.813Z,8.25
2018-03-30T06:04:27.456Z,8.43
2018-03-30T06:05:26.788Z,8.38
2018-03-30T06:06:26.804Z,8.48
2018-03-30T06:07:26.814Z,8.76
2018-03-30T06:08:26.856Z,8.95
2018-03-30T06:09:26.835Z,9.20
2018-03-30T06:10:26.854Z,9.56
2018-03-30T06:11:26.877Z,9.74
2018-03-30T06:12:26.872Z,9.91
2018-03-30T06:13:26.925Z,9.97
2018-03-30T06:14:26.896Z,10.11
2018-03-30T06:15:26.911Z,9.58
2018-03-30T06:16:26.960Z,9.43
2018-03-30T06:17:26.939Z,9.28
2018-03-30T06:18:26.945Z,9.54
2018-03-30T06:19:26.958Z,9.87
2018-03-30T06:20:26.968Z,9.97
2018-03-30T06:21:27.003Z,10.23
2018-03-30T06:22:26.998Z,10.53
2018-03-30T06:23:27.010Z,10.60
2018-03-30T06:24:27.034Z,10.97
2018-03-30T06:25:27.034Z,10.92
2018-03-30T06:26:27.066Z,10.99
2018-03-30T06:27:27.071Z,10.99
2018-03-30T06:28:27.075Z,11.40
2018-03-30T06:29:27.086Z,11.60
2018-03-30T06:30:27.099Z,11.67
2018-03-30T06:31:27.118Z,11.55
2018-03-30T06:32:27.155Z,11.52
2018-03-30T06:33:27.152Z,11.57
2018-03-30T06:34:27.153Z,11.46
2018-03-30T06:35:27.170Z,11.55
2018-03-30T06:36:27.183Z,11.76
2018-03-30T06:37:27.229Z,12.24
2018-03-30T06:38:27.209Z,12.29
2018-03-30T06:39:27.221Z,12.47
2018-03-30T06:40:27.236Z,12.41
2018-03-30T06:41:27.251Z,12.24
2018-03-30T06:42:27.291Z,12.20
2018-03-30T06:43:27.277Z,12.27
2018-03-30T06:44:27.294Z,12.68
2018-03-30T06:45:27.299Z,12.46
2018-03-30T06:46:27.319Z,12.50
2018-03-30T06:47:27.352Z,12.31
2018-03-30T06:48:27.346Z,12.77
2018-03-30T06:49:27.360Z,12.71
2018-03-30T06:50:27.373Z,13.12
2018-03-30T06:51:27.391Z,12.86
2018-03-30T06:52:27.432Z,12.95
2018-03-30T06:53:27.414Z,13.08
2018-03-30T06:54:27.427Z,13.22
2018-03-30T06:55:27.447Z,13.20
2018-03-30T06:56:27.462Z,13.23
2018-03-30T06:57:27.494Z,13.36
2018-03-30T06:58:27.490Z,13.10
2018-03-30T06:59:27.500Z,13.07
2018-03-30T07:00:27.532Z,13.38
2018-03-30T07:01:27.534Z,13.42
2018-03-30T07:02:27.575Z,13.77
2018-03-30T07:03:27.560Z,13.77
2018-03-30T07:04:27.573Z,13.46
2018-03-30T07:05:27.591Z,13.54
2018-03-30T07:06:27.607Z,14.68
2018-03-30T07:07:27.621Z,14.57
2018-03-30T07:08:27.656Z,13.89
2018-03-30T07:09:27.652Z,13.85
2018-03-30T07:10:27.685Z,13.91
2018-03-30T07:11:27.676Z,13.89
2018-03-30T07:12:27.794Z,14.06
2018-03-30T07:13:27.713Z,13.71
2018-03-30T07:14:27.721Z,13.63
2018-03-30T07:15:27.736Z,13.79
2018-03-30T07:16:27.748Z,13.91
2018-03-30T07:17:27.885Z,13.89
2018-03-30T07:18:27.854Z,13.81
2018-03-30T07:19:27.793Z,13.63
2018-03-30T07:20:27.813Z,13.67
2018-03-30T07:21:28.438Z,13.64
2018-03-30T07:22:27.900Z,14.07
2018-03-30T07:23:27.857Z,13.96
2018-03-30T07:24:27.872Z,14.21
2018-03-30T07:25:27.887Z,14.33
2018-03-30T07:26:27.903Z,14.21
2018-03-30T07:27:28.004Z,14.21
2018-03-30T07:28:27.934Z,14.36
2018-03-30T07:29:27.950Z,14.37
2018-03-30T07:30:27.962Z,14.18
2018-03-30T07:31:27.977Z,14.20
2018-03-30T07:32:28.028Z,14.32
2018-03-30T07:33:28.008Z,14.46
2018-03-30T07:34:28.026Z,14.58
2018-03-30T07:35:28.050Z,14.69
2018-03-30T07:36:28.055Z,14.80
2018-03-30T07:37:28.096Z,14.45
2018-03-30T07:38:28.085Z,14.35
2018-03-30T07:39:28.097Z,14.04
2018-03-30T07:40:28.119Z,14.54
2018-03-30T07:41:28.136Z,15.46
2018-03-30T07:42:28.186Z,16.05
2018-03-30T07:43:28.157Z,16.35
2018-03-30T07:44:28.177Z,16.88
2018-03-30T07:45:28.189Z,17.00
2018-03-30T07:46:28.209Z,17.06
2018-03-30T07:47:28.240Z,17.11
2018-03-30T07:48:28.239Z,17.19
2018-03-30T07:49:28.288Z,16.21
2018-03-30T07:50:28.274Z,15.29
2018-03-30T07:51:28.287Z,14.91
2018-03-30T07:52:28.303Z,14.89
2018-03-30T07:53:28.327Z,14.83
2018-03-30T07:54:28.369Z,14.69
2018-03-30T07:55:28.351Z,14.84
2018-03-30T07:56:28.363Z,14.73
2018-03-30T07:57:28.377Z,14.77
2018-03-30T07:58:28.394Z,14.91
2018-03-30T07:59:28.432Z,15.17
2018-03-30T08:00:28.439Z,14.78
2018-03-30T08:01:28.445Z,14.77
2018-03-30T08:02:28.459Z,14.68
2018-03-30T08:03:28.476Z,14.78
2018-03-30T08:04:28.526Z,14.60
2018-03-30T08:05:28.555Z,14.60
2018-03-30T08:06:28.522Z,14.81
2018-03-30T08:07:28.536Z,14.68
2018-03-30T08:08:28.551Z,14.75
2018-03-30T08:09:28.598Z,14.73
2018-03-30T08:10:28.580Z,14.75
2018-03-30T08:11:28.597Z,14.52
2018-03-30T08:12:28.625Z,14.42
2018-03-30T08:13:28.625Z,14.06
2018-03-30T08:14:28.705Z,14.28
2018-03-30T08:15:29.594Z,14.36
2018-03-30T08:16:28.679Z,14.60
2018-03-30T08:17:28.708Z,14.64
2018-03-30T08:18:28.705Z,14.61
2018-03-30T08:19:28.724Z,14.42
2018-03-30T08:20:28.763Z,14.27
2018-03-30T08:21:28.757Z,14.36
2018-03-30T08:22:28.819Z,14.40
2018-03-30T08:23:28.825Z,14.36
2018-03-30T08:24:28.884Z,14.29
2018-03-30T08:25:28.903Z,14.35
2018-03-30T08:26:28.876Z,14.29
2018-03-30T08:27:28.876Z,14.46
2018-03-30T08:28:28.925Z,14.58
2018-03-30T08:29:28.925Z,14.65
2018-03-30T08:30:28.987Z,14.62
2018-03-30T08:31:28.945Z,14.45
2018-03-30T08:32:28.959Z,14.24
2018-03-30T08:33:28.991Z,13.97
2018-03-30T08:34:28.993Z,13.96
2018-03-30T08:35:29.024Z,14.00
2018-03-30T08:36:32.259Z,14.12
2018-03-30T08:37:30.249Z,14.07
2018-03-30T08:38:29.083Z,14.32
2018-03-30T08:39:29.085Z,14.36
2018-03-30T08:40:29.075Z,14.22
2018-03-30T08:41:29.120Z,14.22
2018-03-30T08:42:29.094Z,14.39
2018-03-30T08:43:29.096Z,14.45
2018-03-30T08:44:29.109Z,14.46
2018-03-30T08:45:29.169Z,14.29
2018-03-30T08:46:29.159Z,14.15
2018-03-30T08:47:29.222Z,14.27
2018-03-30T08:48:29.209Z,14.15
2018-03-30T08:49:29.267Z,14.03
2018-03-30T08:50:29.359Z,14.04
2018-03-30T08:51:29.222Z,14.07
2018-03-30T08:52:29.334Z,14.14
2018-03-30T08:53:29.300Z,13.95
2018-03-30T08:54:29.301Z,13.75
2018-03-30T08:55:29.380Z,14.07
2018-03-30T08:56:29.359Z,14.22
2018-03-30T08:57:29.430Z,14.14
2018-03-30T08:58:29.401Z,14.12
2018-03-30T08:59:29.425Z,14.32
2018-03-30T09:00:29.464Z,14.20
2018-03-30T09:01:29.411Z,14.15
2018-03-30T09:02:29.390Z,14.10
2018-03-30T09:03:29.415Z,14.10
2018-03-30T09:04:29.466Z,14.22
2018-03-30T09:05:29.468Z,14.33
2018-03-30T09:06:29.587Z,14.29
2018-03-30T09:07:29.511Z,14.36
2018-03-30T09:08:29.495Z,14.29
2018-03-30T09:09:29.640Z,13.99
2018-03-30T09:10:29.613Z,14.09
2018-03-30T09:11:29.589Z,13.87
2018-03-30T09:12:29.545Z,14.02
2018-03-30T09:13:29.615Z,14.15
2018-03-30T09:14:29.635Z,14.03
2018-03-30T09:15:29.656Z,14.00
2018-03-30T09:16:29.731Z,13.95
2018-03-30T09:17:29.676Z,14.00
2018-03-30T09:18:29.679Z,14.17
2018-03-30T09:19:29.727Z,13.85
2018-03-30T09:20:29.689Z,14.12
2018-03-30T09:21:29.899Z,13.79
2018-03-30T09:22:29.763Z,13.89
2018-03-30T09:23:29.724Z,13.96
2018-03-30T09:24:29.776Z,13.81
2018-03-30T09:25:29.784Z,13.89
2018-03-30T09:26:29.859Z,13.99
2018-03-30T09:27:29.878Z,14.00
2018-03-30T09:28:29.798Z,14.03
2018-03-30T09:29:29.813Z,13.95
2018-03-30T09:30:29.938Z,13.95
2018-03-30T09:31:29.906Z,13.88
2018-03-30T09:32:29.920Z,13.99
2018-03-30T09:33:29.866Z,13.96
2018-03-30T09:34:29.892Z,14.14
2018-03-30T09:35:30.537Z,14.06
2018-03-30T09:36:30.034Z,13.95
2018-03-30T09:37:29.954Z,13.79
2018-03-30T09:38:29.973Z,13.88
2018-03-30T09:39:30.021Z,14.06
2018-03-30T09:40:30.162Z,13.91
2018-03-30T09:41:30.679Z,13.66
2018-03-30T09:42:30.065Z,13.77
2018-03-30T09:43:30.075Z,13.75
2018-03-30T09:44:30.036Z,13.88
2018-03-30T09:45:30.077Z,13.79
2018-03-30T09:46:30.213Z,13.82
2018-03-30T09:47:30.115Z,13.97
2018-03-30T09:48:30.096Z,14.29
2018-03-30T09:49:30.241Z,14.21
2018-03-30T09:50:30.124Z,14.25
2018-03-30T09:51:30.140Z,14.33
2018-03-30T09:52:30.264Z,14.58
2018-03-30T09:53:33.119Z,14.60
2018-03-30T09:54:30.275Z,14.62
2018-03-30T09:55:31.847Z,14.54
2018-03-30T09:56:30.245Z,14.50
2018-03-30T09:57:30.254Z,14.52
2018-03-30T09:58:30.248Z,14.50
2018-03-30T09:59:30.398Z,14.28
2018-03-30T10:00:30.295Z,14.15
2018-03-30T10:01:30.321Z,14.32
2018-03-30T10:02:30.401Z,14.28
2018-03-30T10:03:31.323Z,14.21
2018-03-30T10:04:30.401Z,14.27
2018-03-30T10:05:30.355Z,14.35
2018-03-30T10:06:30.401Z,14.80
2018-03-30T10:07:30.426Z,15.36
2018-03-30T10:08:30.429Z,15.32
2018-03-30T10:09:30.468Z,15.16
2018-03-30T10:10:30.425Z,14.88
2018-03-30T10:11:30.502Z,15.01
2018-03-30T10:12:30.527Z,14.70
2018-03-30T10:13:30.496Z,14.47
2018-03-30T10:14:30.494Z,14.46
2018-03-30T10:15:30.541Z,14.43
2018-03-30T10:16:30.522Z,14.29
2018-03-30T10:17:30.585Z,14.60
2018-03-30T10:18:30.554Z,14.68
2018-03-30T10:19:34.446Z,14.77
2018-03-30T10:20:30.584Z,14.65
2018-03-30T10:21:30.601Z,14.77
2018-03-30T10:22:30.677Z,14.95
2018-03-30T10:23:30.628Z,14.73
2018-03-30T10:24:30.703Z,14.80
2018-03-30T10:25:30.662Z,14.92
2018-03-30T10:26:30.742Z,15.07
2018-03-30T10:27:30.690Z,15.25
2018-03-30T10:28:30.751Z,15.34
2018-03-30T10:29:30.723Z,15.09
2018-03-30T10:30:30.758Z,15.06
2018-03-30T10:31:30.750Z,15.27
2018-03-30T10:32:30.799Z,15.14
2018-03-30T10:33:30.782Z,14.95
2018-03-30T10:34:30.803Z,14.95
2018-03-30T10:35:30.840Z,14.95
2018-03-30T10:36:30.866Z,14.98
2018-03-30T10:37:30.850Z,15.14
2018-03-30T10:38:30.863Z,15.07
2018-03-30T10:39:30.883Z,14.96
2018-03-30T10:40:30.894Z,14.98
2018-03-30T10:41:31.004Z,14.78
2018-03-30T10:42:30.928Z,14.96
2018-03-30T10:43:31.022Z,14.98
2018-03-30T10:44:30.962Z,15.07
2018-03-30T10:45:30.987Z,15.06
2018-03-30T10:46:31.094Z,15.06
2018-03-30T10:47:31.048Z,15.17
2018-03-30T10:48:31.068Z,15.19
2018-03-30T10:49:31.036Z,15.11
2018-03-30T10:50:31.050Z,15.01
2018-03-30T10:51:31.162Z,15.03
2018-03-30T10:52:31.081Z,15.14
2018-03-30T10:53:31.102Z,15.25
2018-03-30T10:54:31.141Z,15.10
2018-03-30T10:55:31.184Z,15.09
2018-03-30T10:56:31.238Z,15.13
2018-03-30T10:57:31.190Z,15.07
2018-03-30T10:58:31.191Z,15.19
2018-03-30T10:59:31.234Z,15.23
2018-03-30T11:00:31.440Z,15.23
2018-03-30T11:01:31.223Z,15.43
2018-03-30T11:02:31.262Z,15.56
2018-03-30T11:03:31.281Z,15.72
2018-03-30T11:04:31.268Z,15.56
2018-03-30T11:05:31.305Z,15.43
2018-03-30T11:06:31.299Z,15.46
2018-03-30T11:07:31.433Z,15.47
2018-03-30T11:08:31.401Z,15.34
2018-03-30T11:09:31.375Z,15.43
2018-03-30T11:10:31.414Z,15.49
2018-03-30T11:11:31.444Z,15.35
2018-03-30T11:12:31.396Z,15.35
2018-03-30T11:13:31.419Z,15.28
2018-03-30T11:14:31.425Z,15.11
2018-03-30T11:15:31.505Z,15.09
2018-03-30T11:16:31.465Z,15.35
2018-03-30T11:17:31.471Z,15.57
2018-03-30T11:18:31.489Z,15.43
2018-03-30T11:19:31.535Z,15.25
2018-03-30T11:20:31.537Z,15.17
2018-03-30T11:21:31.588Z,15.21
2018-03-30T11:22:31.554Z,15.11
2018-03-30T11:23:31.566Z,14.94
2018-03-30T11:24:31.596Z,15.02
2018-03-30T11:25:31.706Z,15.16
2018-03-30T11:26:31.620Z,15.29
2018-03-30T11:27:31.683Z,15.46
2018-03-30T11:28:31.652Z,15.29
2018-03-30T11:29:31.664Z,15.10
2018-03-30T11:30:31.680Z,15.09
2018-03-30T11:31:31.774Z,15.13
2018-03-30T11:32:31.773Z,15.57
2018-03-30T11:33:31.786Z,15.71
2018-03-30T11:34:31.740Z,15.54
2018-03-30T11:35:31.760Z,15.27
2018-03-30T11:36:31.800Z,15.31
2018-03-30T11:37:31.895Z,15.23
2018-03-30T11:38:31.812Z,15.32
2018-03-30T11:39:31.903Z,15.29
2018-03-30T11:40:31.929Z,15.19
2018-03-30T11:41:31.916Z,15.27
2018-03-30T11:42:31.917Z,15.17
2018-03-30T11:43:32.747Z,15.29
2018-03-30T11:44:31.906Z,15.28
2018-03-30T11:45:31.949Z,15.19
2018-03-30T11:46:31.940Z,15.29
2018-03-30T11:47:35.072Z,15.51
2018-03-30T11:48:32.087Z,15.56
2018-03-30T11:49:31.988Z,15.69
2018-03-30T11:50:32.123Z,15.60
2018-03-30T11:51:32.017Z,15.50
2018-03-30T11:52:32.915Z,15.54
2018-03-30T11:53:32.051Z,15.57
2018-03-30T11:54:32.067Z,15.64
2018-03-30T11:55:32.928Z,15.92
2018-03-30T11:56:32.135Z,15.82
2018-03-30T11:57:32.111Z,15.83
2018-03-30T11:58:32.151Z,15.80
2018-03-30T11:59:32.144Z,15.57
2018-03-30T12:00:32.200Z,15.64
2018-03-30T12:01:32.174Z,15.64
2018-03-30T12:02:32.194Z,15.54
2018-03-30T12:03:32.208Z,15.56
2018-03-30T12:04:32.228Z,15.82
2018-03-30T12:05:32.266Z,15.76
2018-03-30T12:06:32.256Z,15.83
2018-03-30T12:07:32.273Z,16.05
2018-03-30T12:08:32.294Z,16.07
2018-03-30T12:09:32.312Z,16.11
2018-03-30T12:10:32.342Z,16.04
2018-03-30T12:11:32.549Z,15.94
2018-03-30T12:12:32.373Z,15.93
2018-03-30T12:13:32.396Z,16.04
2018-03-30T12:14:32.390Z,16.04
2018-03-30T12:15:32.403Z,15.82
2018-03-30T12:16:32.418Z,15.65
2018-03-30T12:17:32.434Z,15.65
2018-03-30T12:18:32.744Z,15.80
2018-03-30T12:19:32.485Z,15.68
2018-03-30T12:20:32.487Z,15.93
2018-03-30T12:21:32.517Z,16.07
2018-03-30T12:22:34.154Z,16.07
2018-03-30T12:23:33.247Z,15.93
2018-03-30T12:24:32.569Z,16.14
2018-03-30T12:25:32.574Z,16.14
2018-03-30T12:26:32.588Z,16.12
2018-03-30T12:27:32.596Z,16.15
2018-03-30T12:28:32.613Z,16.08
2018-03-30T12:29:32.653Z,16.11
2018-03-30T12:30:32.651Z,16.12
2018-03-30T12:31:32.665Z,16.02
2018-03-30T12:32:34.240Z,16.05
2018-03-30T12:33:32.699Z,16.12
2018-03-30T12:34:32.734Z,16.30
2018-03-30T12:35:34.749Z,16.15
2018-03-30T12:36:32.745Z,16.20
2018-03-30T12:37:32.762Z,16.12
2018-03-30T12:38:32.782Z,16.07
2018-03-30T12:39:32.814Z,16.20
2018-03-30T12:40:32.809Z,16.31
2018-03-30T12:41:32.825Z,16.41
2018-03-30T12:42:32.846Z,16.34
2018-03-30T12:43:32.896Z,16.39
2018-03-30T12:44:32.877Z,16.35
2018-03-30T12:45:32.894Z,16.34
2018-03-30T12:46:32.911Z,16.39
2018-03-30T12:47:32.925Z,16.34
2018-03-30T12:48:32.977Z,16.30
2018-03-30T12:49:32.960Z,16.71
2018-03-30T12:50:32.979Z,16.49
2018-03-30T12:51:32.989Z,16.49
2018-03-30T12:52:33.010Z,16.35
2018-03-30T12:53:33.062Z,16.45
2018-03-30T12:54:33.042Z,16.42
2018-03-30T12:55:33.065Z,16.45
2018-03-30T12:56:33.080Z,16.78
2018-03-30T12:57:33.104Z,16.76
2018-03-30T12:58:33.149Z,16.64
2018-03-30T12:59:33.129Z,16.73
2018-03-30T13:00:33.141Z,16.71
2018-03-30T13:01:33.167Z,16.57
2018-03-30T13:02:33.180Z,16.64
2018-03-30T13:03:33.235Z,16.81
2018-03-30T13:04:33.211Z,16.85